Time;durP1;ratioP1;P1;durP2;ratioP2;P2;SDS_P1;SDS_P2;PMS_P1;PMS_P2;Temp;Humidity;BMP_temperature;BMP_pressure;BME280_temperature;BME280_humidity;BME280_pressure;Samples;Min_cycle;Max_cycle;Signal;HPM_P1;HPM_P2
2021/08/07 00:01:24;;;;;;;3.83;1.85;;;17.20;93.20;;;;;;3541002;40;20026;-68
2021/08/07 00:03:49;;;;;;;2.22;1.85;;;17.20;93.20;;;;;;3541865;40;20034;-69
2021/08/07 00:06:15;;;;;;;2.13;1.77;;;17.10;93.40;;;;;;3540881;40;20124;-68
2021/08/07 00:08:41;;;;;;;1.90;1.80;;;17.20;93.20;;;;;;3540404;40;20419;-68
2021/08/07 00:11:07;;;;;;;1.98;1.77;;;17.10;93.00;;;;;;3540915;40;20038;-68
2021/08/07 00:13:32;;;;;;;2.10;1.90;;;17.10;92.90;;;;;;3540473;40;20155;-69
2021/08/07 00:15:58;;;;;;;3.38;1.75;;;17.10;92.90;;;;;;3541728;40;20069;-68
2021/08/07 00:18:24;;;;;;;1.92;1.70;;;17.10;92.90;;;;;;3540770;40;20403;-68
2021/08/07 00:20:49;;;;;;;2.03;1.83;;;17.10;92.90;;;;;;3540627;40;20281;-68
2021/08/07 00:23:15;;;;;;;3.75;2.00;;;17.00;92.90;;;;;;3540993;40;20049;-69
2021/08/07 00:25:41;;;;;;;2.05;1.77;;;17.00;92.90;;;;;;3541179;40;20166;-68
2021/08/07 00:28:07;;;;;;;2.00;1.90;;;17.00;93.00;;;;;;3538560;40;20589;-68
2021/08/07 00:30:34;;;;;;;1.70;1.60;;;17.00;93.00;;;;;;3539481;40;20038;-68
2021/08/07 00:33:01;;;;;;;4.53;1.63;;;17.00;93.10;;;;;;3541661;40;20156;-68
2021/08/07 00:35:27;;;;;;;3.38;1.67;;;17.00;93.10;;;;;;3548362;40;20395;-68
2021/08/07 00:37:54;;;;;;;1.38;1.27;;;17.00;93.10;;;;;;3541542;40;20038;-68
2021/08/07 00:40:21;;;;;;;3.42;2.03;;;17.00;93.10;;;;;;3548398;40;20566;-68
2021/08/07 00:42:52;;;;;;;4.10;1.90;;;17.00;93.10;;;;;;3547519;40;20046;-68
2021/08/07 00:45:27;;;;;;;2.53;2.10;;;17.00;93.20;;;;;;3531057;40;20046;-68
2021/08/07 00:47:56;;;;;;;2.40;1.98;;;16.90;93.20;;;;;;3538652;40;20102;-68
2021/08/07 00:50:22;;;;;;;2.63;1.90;;;16.90;93.20;;;;;;3538895;40;20043;-68
2021/08/07 00:52:49;;;;;;;2.08;1.88;;;16.90;93.30;;;;;;3539585;40;20130;-68
2021/08/07 00:55:21;;;;;;;3.08;1.80;;;16.90;93.40;;;;;;3548195;40;20151;-68
2021/08/07 00:57:47;;;;;;;3.83;1.92;;;16.90;93.30;;;;;;3548147;40;20034;-68
2021/08/07 01:00:17;;;;;;;5.85;2.20;;;16.90;93.40;;;;;;3539760;40;20038;-68
2021/08/07 01:02:54;;;;;;;2.63;1.85;;;16.90;93.50;;;;;;3547777;40;20045;-68
2021/08/07 01:05:36;;;;;;;2.80;1.90;;;16.90;93.60;;;;;;3539293;40;20045;-69
2021/08/07 01:08:16;;;;;;;4.10;2.05;;;17.00;93.60;;;;;;3540091;40;20499;-68
2021/08/07 01:10:46;;;;;;;2.65;1.88;;;16.90;93.50;;;;;;3538410;40;20050;-68
2021/08/07 01:13:27;;;;;;;2.60;1.85;;;17.00;93.30;;;;;;3539855;40;20093;-68
2021/08/07 01:16:05;;;;;;;2.10;1.90;;;17.00;93.20;;;;;;3539061;40;20038;-68
2021/08/07 01:18:37;;;;;;;2.10;1.90;;;16.90;93.20;;;;;;3539386;40;20080;-68
2021/08/07 01:21:07;;;;;;;4.22;2.10;;;16.90;93.20;;;;;;3539812;40;20144;-68
2021/08/07 01:23:53;;;;;;;2.03;1.83;;;16.90;93.20;;;;;;3538430;40;20102;-67
2021/08/07 01:26:19;;;;;;;2.75;2.22;;;16.90;93.20;;;;;;3539513;40;20113;-67
2021/08/07 01:28:59;;;;;;;3.53;2.10;;;16.90;93.10;;;;;;3540064;40;20033;-68
2021/08/07 01:31:26;;;;;;;4.53;2.10;;;16.90;93.10;;;;;;3548105;40;20058;-68
2021/08/07 01:33:56;;;;;;;4.32;2.00;;;16.90;93.10;;;;;;3539105;40;20042;-67
2021/08/07 01:36:34;;;;;;;3.78;2.05;;;16.80;93.30;;;;;;3539669;40;20097;-68
2021/08/07 01:39:01;;;;;;;2.80;2.30;;;16.80;93.40;;;;;;3539646;40;20042;-68
2021/08/07 01:41:30;;;;;;;3.70;2.40;;;16.80;93.40;;;;;;3538446;40;20034;-68
2021/08/07 01:44:09;;;;;;;2.72;2.50;;;16.80;93.40;;;;;;3539891;40;20038;-68
2021/08/07 01:46:54;;;;;;;2.30;2.10;;;16.90;93.40;;;;;;3548010;40;20405;-68
2021/08/07 01:49:35;;;;;;;2.55;2.03;;;16.90;93.40;;;;;;3547004;40;20075;-69
2021/08/07 01:52:08;;;;;;;2.83;2.10;;;16.80;93.30;;;;;;3539359;40;20049;-68
2021/08/07 01:54:55;;;;;;;4.38;2.15;;;16.80;93.40;;;;;;3547833;40;20042;-68
2021/08/07 01:57:27;;;;;;;3.97;2.00;;;16.80;93.30;;;;;;3539392;40;20074;-69
2021/08/07 01:59:55;;;;;;;2.47;2.28;;;16.80;93.30;;;;;;3540817;40;20050;-69
2021/08/07 02:02:23;;;;;;;2.30;2.08;;;16.80;93.30;;;;;;3539011;40;20756;-68
2021/08/07 02:04:52;;;;;;;2.28;2.05;;;16.80;93.30;;;;;;3548408;40;20039;-69
2021/08/07 02:07:28;;;;;;;3.20;1.73;;;16.80;93.30;;;;;;3539337;40;20047;-69
2021/08/07 02:10:02;;;;;;;;;;;16.80;93.40;;;;;;3538824;40;20070;-69
2021/08/07 02:12:31;;;;;;;2.30;2.10;;;16.80;93.30;;;;;;3548006;40;19929;-69
2021/08/07 02:15:05;;;;;;;3.92;2.22;;;16.70;93.30;;;;;;3538576;40;20109;-68
2021/08/07 02:17:33;;;;;;;2.35;2.15;;;16.70;93.40;;;;;;3546591;40;20062;-68
2021/08/07 02:19:59;;;;;;;2.67;2.40;;;16.70;93.40;;;;;;3541200;40;20026;-69
2021/08/07 02:22:28;;;;;;;3.42;2.25;;;16.70;93.50;;;;;;3548129;40;20038;-69
2021/08/07 02:24:55;;;;;;;2.97;2.10;;;16.70;93.50;;;;;;3539344;40;20031;-68
2021/08/07 02:27:29;;;;;;;3.85;2.38;;;16.80;93.60;;;;;;3539811;40;20026;-69
2021/08/07 02:29:56;;;;;;;3.65;2.42;;;16.70;93.60;;;;;;3540046;40;20125;-68
2021/08/07 02:32:23;;;;;;;6.75;2.58;;;16.70;93.60;;;;;;3539574;40;20066;-69
2021/08/07 02:34:55;;;;;;;2.50;2.30;;;16.80;93.70;;;;;;3539747;40;20034;-68
2021/08/07 02:37:28;;;;;;;2.53;2.10;;;16.80;93.70;;;;;;3539411;40;20034;-68
2021/08/07 02:39:54;;;;;;;2.40;2.10;;;16.80;93.60;;;;;;3539929;40;20034;-68
2021/08/07 02:42:20;;;;;;;2.20;2.00;;;16.80;93.60;;;;;;3547974;40;20424;-69
2021/08/07 02:44:46;;;;;;;2.88;2.58;;;16.80;93.70;;;;;;3548153;40;20039;-69
2021/08/07 02:47:16;;;;;;;3.17;2.60;;;16.80;93.70;;;;;;3540061;40;20039;-67
2021/08/07 02:49:43;;;;;;;2.80;2.15;;;16.80;93.70;;;;;;3539438;40;20054;-69
2021/08/07 02:52:08;;;;;;;3.25;2.40;;;16.80;93.60;;;;;;3538944;40;20190;-69
2021/08/07 02:54:35;;;;;;;2.90;2.15;;;16.80;93.70;;;;;;3546943;40;20038;-69
2021/08/07 02:57:02;;;;;;;2.92;2.30;;;16.80;93.80;;;;;;3541117;40;20758;-69
2021/08/07 02:59:29;;;;;;;2.60;2.05;;;16.80;93.70;;;;;;3538200;40;20035;-68
2021/08/07 03:01:55;;;;;;;2.55;2.35;;;16.80;93.70;;;;;;3547498;40;20137;-69
2021/08/07 03:04:22;;;;;;;2.65;2.40;;;16.90;93.70;;;;;;3538613;40;20034;-69
2021/08/07 03:06:50;;;;;;;3.90;2.10;;;16.90;93.70;;;;;;3547126;40;20286;-68
2021/08/07 03:09:16;;;;;;;6.00;2.40;;;16.90;93.60;;;;;;3548332;40;20030;-68
2021/08/07 03:11:48;;;;;;;2.45;2.00;;;16.80;93.60;;;;;;3539644;40;20436;-68
2021/08/07 03:14:16;;;;;;;2.60;2.40;;;16.90;93.70;;;;;;3539928;40;20046;-69
2021/08/07 03:16:41;;;;;;;5.78;2.47;;;16.90;93.70;;;;;;3539899;40;20055;-68
2021/08/07 03:19:12;;;;;;;4.53;2.30;;;16.90;93.70;;;;;;3539466;40;20094;-68
2021/08/07 03:21:38;;;;;;;2.67;2.47;;;16.80;93.60;;;;;;3539812;40;20046;-68
2021/08/07 03:24:06;;;;;;;4.00;2.30;;;16.90;93.60;;;;;;3539824;40;20050;-68
2021/08/07 03:26:34;;;;;;;8.48;2.63;;;16.90;93.60;;;;;;3539516;40;20600;-69
2021/08/07 03:29:08;;;;;;;4.68;2.47;;;16.80;93.60;;;;;;3539795;40;20078;-68
2021/08/07 03:31:35;;;;;;;4.85;2.13;;;16.80;93.50;;;;;;3539064;40;20031;-69
2021/08/07 03:34:01;;;;;;;3.75;2.45;;;16.80;93.50;;;;;;3540046;40;20034;-68
2021/08/07 03:36:28;;;;;;;2.33;2.13;;;16.80;93.40;;;;;;3548327;40;20043;-68
2021/08/07 03:38:59;;;;;;;2.53;2.33;;;16.80;93.40;;;;;;3539891;40;20042;-69
2021/08/07 03:41:26;;;;;;;3.72;2.72;;;16.80;93.40;;;;;;3540617;40;20602;-69
2021/08/07 03:43:52;;;;;;;2.83;2.63;;;16.70;93.40;;;;;;3539777;40;20474;-69
2021/08/07 03:46:19;;;;;;;5.13;2.70;;;16.70;93.40;;;;;;3548115;40;20027;-68
2021/08/07 03:48:47;;;;;;;3.25;2.78;;;16.80;93.40;;;;;;3540019;40;20039;-69
2021/08/07 03:51:13;;;;;;;3.75;2.47;;;16.80;93.40;;;;;;3539646;40;20112;-68
2021/08/07 03:53:44;;;;;;;2.78;2.50;;;16.70;93.50;;;;;;3539412;40;20326;-69
2021/08/07 03:56:12;;;;;;;2.65;2.45;;;16.70;93.50;;;;;;3539166;40;20042;-68
2021/08/07 03:58:39;;;;;;;3.47;2.63;;;16.70;93.60;;;;;;3540401;40;20046;-69
2021/08/07 04:01:12;;;;;;;4.15;2.45;;;16.80;93.60;;;;;;3539835;40;20038;-69
2021/08/07 04:03:37;;;;;;;3.90;2.60;;;16.80;93.60;;;;;;3540326;40;20042;-69
2021/08/07 04:06:03;;;;;;;2.80;2.50;;;16.80;93.60;;;;;;3541270;40;20818;-68
2021/08/07 04:08:33;;;;;;;2.58;2.05;;;16.80;93.50;;;;;;3540131;40;20039;-68
2021/08/07 04:10:59;;;;;;;5.40;2.40;;;16.80;93.50;;;;;;3540780;40;20124;-68
2021/08/07 04:13:28;;;;;;;2.58;2.33;;;16.80;93.40;;;;;;3540204;40;20264;-69
2021/08/07 04:15:58;;;;;;;3.60;2.45;;;16.80;93.40;;;;;;3539485;40;20038;-68
2021/08/07 04:18:23;;;;;;;2.88;2.67;;;16.80;93.40;;;;;;3548647;40;20375;-68
2021/08/07 04:20:52;;;;;;;2.95;2.58;;;16.80;93.20;;;;;;3541656;40;20144;-69
2021/08/07 04:23:20;;;;;;;4.25;2.50;;;16.80;93.10;;;;;;3539608;40;20086;-68
2021/08/07 04:25:45;;;;;;;4.85;2.20;;;16.80;93.00;;;;;;3541714;40;20061;-69
2021/08/07 04:28:11;;;;;;;2.20;2.00;;;16.80;92.80;;;;;;3539665;40;20412;-68
2021/08/07 04:30:40;;;;;;;2.78;2.25;;;16.80;92.70;;;;;;3541139;40;20048;-68
2021/08/07 04:33:08;;;;;;;3.05;2.30;;;16.70;92.60;;;;;;3540100;40;20046;-68
2021/08/07 04:35:38;;;;;;;3.75;2.38;;;16.70;92.60;;;;;;3548331;40;20404;-68
2021/08/07 04:38:04;;;;;;;3.20;2.33;;;16.60;92.50;;;;;;3540336;40;20035;-69
2021/08/07 04:40:37;;;;;;;2.50;2.30;;;16.60;92.60;;;;;;3539787;40;20045;-69
2021/08/07 04:43:17;;;;;;;2.33;2.13;;;16.70;92.70;;;;;;3539340;40;20050;-68
2021/08/07 04:45:43;;;;;;;3.78;2.70;;;16.60;92.70;;;;;;3541299;40;20121;-69
2021/08/07 04:48:10;;;;;;;4.85;2.65;;;16.60;92.60;;;;;;3539280;40;20034;-68
2021/08/07 04:50:44;;;;;;;3.42;2.70;;;16.60;92.60;;;;;;3538886;40;20046;-68
2021/08/07 04:53:10;;;;;;;4.70;2.60;;;16.70;92.70;;;;;;3541210;40;20046;-69
2021/08/07 04:55:40;;;;;;;2.85;2.55;;;16.60;92.70;;;;;;3540850;40;20038;-68
2021/08/07 04:58:07;;;;;;;3.33;3.03;;;16.60;92.70;;;;;;3540824;40;20049;-69
2021/08/07 05:00:35;;;;;;;5.32;3.42;;;16.70;92.90;;;;;;3548695;40;20686;-69
2021/08/07 05:03:03;;;;;;;3.70;3.22;;;16.70;93.20;;;;;;3538812;40;20038;-68
2021/08/07 05:05:32;;;;;;;3.95;2.75;;;16.70;92.90;;;;;;3540347;40;20039;-68
2021/08/07 05:07:59;;;;;;;3.88;3.20;;;16.80;93.00;;;;;;3546252;40;20419;-68
2021/08/07 05:10:26;;;;;;;7.05;3.33;;;16.80;93.00;;;;;;3547112;40;20174;-68
2021/08/07 05:12:52;;;;;;;6.30;3.38;;;16.80;93.00;;;;;;3539046;40;20050;-68
2021/08/07 05:15:18;;;;;;;5.53;3.10;;;16.80;93.10;;;;;;3538768;40;20043;-68
2021/08/07 05:17:45;;;;;;;4.13;3.50;;;16.80;93.10;;;;;;3539524;40;20054;-68
2021/08/07 05:20:11;;;;;;;5.38;2.80;;;16.90;93.20;;;;;;3546266;40;20053;-68
2021/08/07 05:22:38;;;;;;;3.47;2.60;;;17.00;93.30;;;;;;3538424;40;20039;-69
2021/08/07 05:25:05;;;;;;;4.68;2.67;;;17.00;93.30;;;;;;3539290;40;20042;-69
2021/08/07 05:27:34;;;;;;;3.47;2.65;;;17.10;93.30;;;;;;3537744;40;20055;-69
2021/08/07 05:30:04;;;;;;;2.75;2.50;;;17.10;93.30;;;;;;3538570;40;20044;-69
2021/08/07 05:32:31;;;;;;;3.10;2.70;;;17.20;93.40;;;;;;3538088;40;20049;-68
2021/08/07 05:34:57;;;;;;;4.15;2.90;;;17.20;93.40;;;;;;3547577;40;20077;-68
2021/08/07 05:37:24;;;;;;;4.20;3.00;;;17.30;93.40;;;;;;3538460;40;20262;-68
2021/08/07 05:39:50;;;;;;;3.50;3.20;;;17.40;93.40;;;;;;3547924;40;20034;-69
2021/08/07 05:42:16;;;;;;;6.03;3.33;;;17.50;93.60;;;;;;3539529;40;20120;-69
2021/08/07 05:44:42;;;;;;;6.10;3.55;;;17.50;93.60;;;;;;3538373;40;20050;-67
2021/08/07 05:47:09;;;;;;;4.70;2.90;;;17.60;93.60;;;;;;3539627;40;20393;-69
2021/08/07 05:49:36;;;;;;;3.95;3.10;;;17.70;93.60;;;;;;3547591;40;20042;-68
2021/08/07 05:52:03;;;;;;;4.18;3.15;;;17.80;93.60;;;;;;3538590;40;20047;-68
2021/08/07 05:54:30;;;;;;;3.30;3.00;;;17.90;93.50;;;;;;3539458;40;20117;-68
2021/08/07 05:56:56;;;;;;;3.33;3.03;;;17.90;93.40;;;;;;3540879;40;20035;-69
2021/08/07 05:59:22;;;;;;;3.88;3.03;;;18.00;93.30;;;;;;3540565;40;20098;-68
2021/08/07 06:01:48;;;;;;;4.72;3.03;;;18.10;93.20;;;;;;3547504;40;20041;-69
2021/08/07 06:04:14;;;;;;;5.18;3.20;;;18.10;93.20;;;;;;3538988;40;20378;-68
2021/08/07 06:06:40;;;;;;;3.58;2.75;;;18.20;92.90;;;;;;3547074;40;20046;-68
2021/08/07 06:09:06;;;;;;;6.45;2.92;;;18.30;92.60;;;;;;3539118;40;20038;-67
2021/08/07 06:11:32;;;;;;;4.78;2.60;;;18.30;92.60;;;;;;3538329;40;20077;-68
2021/08/07 06:13:58;;;;;;;5.10;2.67;;;18.40;92.70;;;;;;3547004;40;20030;-68
2021/08/07 06:16:25;;;;;;;3.10;2.50;;;18.40;92.70;;;;;;3538836;40;20047;-68
2021/08/07 06:18:51;;;;;;;3.30;2.63;;;18.50;92.70;;;;;;3538774;40;20042;-69
2021/08/07 06:21:17;;;;;;;5.80;3.15;;;18.60;92.60;;;;;;3547342;40;20117;-68
2021/08/07 06:23:43;;;;;;;5.82;3.10;;;18.60;92.30;;;;;;3538130;40;20447;-69
2021/08/07 06:26:09;;;;;;;4.40;2.83;;;18.60;92.00;;;;;;3538611;40;20030;-70
2021/08/07 06:28:38;;;;;;;5.45;3.65;;;18.70;91.80;;;;;;3539618;40;20182;-69
2021/08/07 06:31:06;;;;;;;6.03;4.40;;;18.70;91.70;;;;;;3536557;40;20088;-69
2021/08/07 06:33:36;;;;;;;7.35;5.25;;;18.80;91.70;;;;;;3538755;40;20121;-69
2021/08/07 06:36:02;;;;;;;6.63;3.70;;;18.90;91.30;;;;;;3540562;40;20403;-69
2021/08/07 06:38:30;;;;;;;2.40;2.20;;;19.00;91.70;;;;;;3547719;40;20060;-69
2021/08/07 06:40:57;;;;;;;5.78;2.03;;;19.10;91.10;;;;;;3547056;40;20030;-69
2021/08/07 06:43:23;;;;;;;6.88;2.00;;;19.30;90.60;;;;;;3540588;40;20313;-70
2021/08/07 06:46:21;;;;;;;1.85;1.75;;;19.40;89.50;;;;;;3533627;40;20038;-69
2021/08/07 06:48:46;;;;;;;7.60;3.13;;;19.60;88.90;;;;;;3535919;40;20051;-70
2021/08/07 06:51:13;;;;;;;8.63;4.50;;;19.60;89.70;;;;;;3546840;40;20294;-70
2021/08/07 06:53:39;;;;;;;14.00;6.22;;;19.60;89.60;;;;;;3538919;40;20070;-69
2021/08/07 06:56:04;;;;;;;5.43;4.18;;;19.60;88.60;;;;;;3547659;40;20710;-69
2021/08/07 06:58:31;;;;;;;4.30;2.53;;;19.60;88.80;;;;;;3538760;40;20033;-70
2021/08/07 07:00:57;;;;;;;9.38;5.57;;;19.80;87.00;;;;;;3538824;40;20071;-70
2021/08/07 07:03:23;;;;;;;7.88;4.60;;;19.90;87.90;;;;;;3539429;40;20030;-70
2021/08/07 07:05:48;;;;;;;5.85;3.20;;;19.90;87.20;;;;;;3540702;40;20049;-69
2021/08/07 07:08:17;;;;;;;6.43;4.18;;;20.00;87.00;;;;;;3549931;40;20030;-69
2021/08/07 07:10:43;;;;;;;8.60;4.35;;;20.10;86.80;;;;;;3541029;40;20033;-70
2021/08/07 07:13:09;;;;;;;9.25;6.22;;;20.10;86.90;;;;;;3541681;40;20030;-69
2021/08/07 07:15:35;;;;;;;9.98;5.47;;;20.10;87.40;;;;;;3549072;40;20034;-70
2021/08/07 07:18:02;;;;;;;5.40;4.20;;;20.10;86.90;;;;;;3542206;40;20038;-69
2021/08/07 07:20:28;;;;;;;4.38;2.20;;;20.20;85.70;;;;;;3540752;40;20408;-69
2021/08/07 07:22:54;;;;;;;2.88;2.17;;;20.20;85.90;;;;;;3541098;40;20049;-68
2021/08/07 07:25:21;;;;;;;3.08;2.00;;;20.40;84.90;;;;;;3541077;40;20045;-68
2021/08/07 07:27:48;;;;;;;2.28;1.75;;;20.40;85.00;;;;;;3541773;40;20457;-68
2021/08/07 07:30:16;;;;;;;2.15;1.77;;;20.50;85.70;;;;;;3540651;40;20042;-67
2021/08/07 07:32:43;;;;;;;3.90;1.63;;;20.50;85.70;;;;;;3541011;40;20038;-69
2021/08/07 07:35:10;;;;;;;2.55;1.50;;;20.60;83.80;;;;;;3541112;40;20043;-71
2021/08/07 07:37:36;;;;;;;2.45;1.52;;;20.70;84.60;;;;;;3540996;40;20142;-70
2021/08/07 07:40:03;;;;;;;1.50;1.40;;;20.80;84.30;;;;;;3540622;40;20050;-70
2021/08/07 07:42:30;;;;;;;2.53;1.60;;;20.90;82.60;;;;;;3540443;40;20144;-70
2021/08/07 07:44:57;;;;;;;2.70;1.65;;;20.90;85.10;;;;;;3538633;40;20033;-70
2021/08/07 07:47:23;;;;;;;2.40;1.65;;;21.00;83.70;;;;;;3547723;40;20814;-70
2021/08/07 07:49:50;;;;;;;1.98;1.50;;;21.00;83.10;;;;;;3539369;40;20057;-70
2021/08/07 07:52:18;;;;;;;3.15;2.05;;;21.00;84.80;;;;;;3538780;40;20039;-70
2021/08/07 07:54:44;;;;;;;2.22;1.70;;;21.10;84.10;;;;;;3539954;40;20340;-71
2021/08/07 07:57:10;;;;;;;2.20;2.00;;;21.20;83.90;;;;;;3539581;40;20111;-70
2021/08/07 07:59:38;;;;;;;2.53;1.75;;;21.30;84.20;;;;;;3539419;40;20038;-69
2021/08/07 08:02:05;;;;;;;2.58;2.05;;;21.30;85.50;;;;;;3545932;40;20047;-70
2021/08/07 08:04:32;;;;;;;3.75;2.08;;;21.40;84.40;;;;;;3548100;40;20026;-69
2021/08/07 08:07:02;;;;;;;7.25;1.90;;;21.40;80.50;;;;;;3539364;40;20930;-70
2021/08/07 08:09:29;;;;;;;2.97;1.65;;;21.50;79.50;;;;;;3538907;40;20075;-70
2021/08/07 08:11:55;;;;;;;4.43;1.90;;;21.40;81.80;;;;;;3539259;40;20038;-71
2021/08/07 08:14:21;;;;;;;4.88;2.75;;;21.50;80.10;;;;;;3547462;40;20101;-71
2021/08/07 08:16:47;;;;;;;4.10;2.20;;;21.60;81.80;;;;;;3540960;40;20057;-70
2021/08/07 08:19:14;;;;;;;5.40;4.25;;;21.80;78.50;;;;;;3538175;40;20031;-69
2021/08/07 08:21:40;;;;;;;4.50;2.75;;;22.00;80.40;;;;;;3539728;40;20038;-70
2021/08/07 08:24:06;;;;;;;2.95;2.00;;;22.20;77.20;;;;;;3539450;40;20462;-69
2021/08/07 08:26:33;;;;;;;11.93;7.63;;;22.30;78.00;;;;;;3539413;40;20030;-70
2021/08/07 08:28:59;;;;;;;4.43;3.85;;;22.30;79.90;;;;;;3547836;40;20042;-70
2021/08/07 08:31:25;;;;;;;2.75;1.92;;;22.40;76.80;;;;;;3540270;40;20424;-69
2021/08/07 08:33:51;;;;;;;2.58;2.17;;;22.50;75.90;;;;;;3539926;40;20038;-71
2021/08/07 08:36:17;;;;;;;2.42;1.90;;;22.50;73.10;;;;;;3539001;40;20074;-71
2021/08/07 08:38:43;;;;;;;5.28;3.30;;;22.50;76.70;;;;;;3547156;40;20408;-69
2021/08/07 08:41:09;;;;;;;2.25;1.88;;;22.50;78.90;;;;;;3548258;40;20040;-69
2021/08/07 08:43:40;;;;;;;3.20;2.60;;;22.70;76.10;;;;;;3547233;40;20511;-70
2021/08/07 08:46:06;;;;;;;1.50;1.40;;;22.70;77.80;;;;;;3540462;40;20116;-70
2021/08/07 08:48:35;;;;;;;1.10;1.00;;;22.90;70.20;;;;;;3539093;40;20023;-70
2021/08/07 08:51:04;;;;;;;5.82;3.78;;;22.90;70.40;;;;;;3540652;40;20045;-70
2021/08/07 08:53:30;;;;;;;6.50;1.88;;;22.70;75.40;;;;;;3542320;40;20204;-70
2021/08/07 08:55:55;;;;;;;4.95;2.50;;;22.70;74.00;;;;;;3538671;40;20035;-70
2021/08/07 08:58:21;;;;;;;4.07;2.22;;;22.70;74.10;;;;;;3540353;40;20022;-69
2021/08/07 09:00:47;;;;;;;2.63;2.22;;;22.70;72.30;;;;;;3539674;40;20042;-69
2021/08/07 09:03:14;;;;;;;2.72;1.95;;;22.80;70.40;;;;;;3539864;40;20124;-70
2021/08/07 09:05:40;;;;;;;5.53;3.28;;;22.80;69.80;;;;;;3539352;40;20168;-69
2021/08/07 09:08:06;;;;;;;2.33;1.90;;;22.70;72.40;;;;;;3539568;40;20602;-70
2021/08/07 09:10:34;;;;;;;3.25;1.73;;;22.60;70.90;;;;;;3548033;40;20029;-69
2021/08/07 09:13:03;;;;;;;1.70;1.40;;;22.60;72.30;;;;;;3539118;40;20039;-69
2021/08/07 09:15:39;;;;;;;2.88;1.73;;;22.60;72.50;;;;;;3539256;40;20304;-68
2021/08/07 09:18:11;;;;;;;4.60;1.70;;;22.70;71.70;;;;;;3538292;40;20050;-69
2021/08/07 09:20:42;;;;;;;2.97;1.67;;;22.80;71.00;;;;;;3538213;40;20582;-73
2021/08/07 09:23:09;;;;;;;2.40;1.88;;;22.90;69.90;;;;;;3537325;40;20082;-69
2021/08/07 09:25:41;;;;;;;3.92;1.52;;;23.00;70.50;;;;;;3539838;40;20687;-69
2021/08/07 09:28:08;;;;;;;3.15;1.27;;;23.10;70.10;;;;;;3539015;40;20617;-69
2021/08/07 09:30:36;;;;;;;2.85;1.30;;;23.10;70.20;;;;;;3540020;40;20660;-69
2021/08/07 09:33:12;;;;;;;1.58;1.05;;;23.20;68.60;;;;;;3537963;40;20071;-70
2021/08/07 09:35:42;;;;;;;1.45;1.13;;;23.20;69.60;;;;;;3547408;40;20700;-70
2021/08/07 09:38:12;;;;;;;3.70;1.50;;;23.30;69.40;;;;;;3540097;40;20038;-69
2021/08/07 09:40:44;;;;;;;1.27;1.08;;;23.30;70.10;;;;;;3539673;40;20185;-69
2021/08/07 09:43:12;;;;;;;2.08;1.17;;;23.40;69.10;;;;;;3539416;40;20041;-70
2021/08/07 09:45:38;;;;;;;3.00;1.15;;;23.50;69.50;;;;;;3541165;40;20026;-70
2021/08/07 09:48:11;;;;;;;2.67;2.20;;;23.60;68.30;;;;;;3539683;40;20046;-69
2021/08/07 09:50:37;;;;;;;2.33;1.38;;;23.70;68.60;;;;;;3540042;40;20046;-70
2021/08/07 09:53:16;;;;;;;0.80;0.80;;;23.80;68.10;;;;;;3548187;40;20042;-70
2021/08/07 09:56:02;;;;;;;2.30;1.40;;;23.90;65.60;;;;;;3541497;40;20046;-69
2021/08/07 09:58:35;;;;;;;2.78;1.15;;;24.00;67.50;;;;;;3546342;40;20050;-70
2021/08/07 10:01:01;;;;;;;0.80;0.80;;;24.10;64.60;;;;;;3539411;40;20107;-70
2021/08/07 10:03:32;;;;;;;1.55;1.10;;;24.10;64.40;;;;;;3538283;40;20080;-68
2021/08/07 10:06:21;;;;;;;3.13;1.58;;;24.10;63.00;;;;;;3540205;40;20035;-70
2021/08/07 10:08:50;;;;;;;2.72;1.20;;;24.10;65.00;;;;;;3540416;40;20045;-70
2021/08/07 10:11:20;;;;;;;2.17;1.10;;;24.20;61.70;;;;;;3537817;40;20474;-70
2021/08/07 10:13:47;;;;;;;1.65;1.00;;;24.10;61.90;;;;;;3541663;40;20308;-69
2021/08/07 10:16:20;;;;;;;4.43;2.20;;;24.20;62.20;;;;;;3547909;40;20077;-76
2021/08/07 10:18:50;;;;;;;2.53;1.30;;;24.20;63.40;;;;;;3539365;40;20699;-69
2021/08/07 10:21:16;;;;;;;1.73;1.05;;;24.20;61.90;;;;;;3539345;40;20050;-69
2021/08/07 10:23:43;;;;;;;2.13;1.80;;;24.30;62.40;;;;;;3539757;40;20058;-70
2021/08/07 10:26:12;;;;;;;1.67;0.95;;;24.30;64.60;;;;;;3539972;40;20303;-70
2021/08/07 10:28:46;;;;;;;2.08;1.70;;;24.30;62.00;;;;;;3547933;40;20308;-70
2021/08/07 10:31:14;;;;;;;3.65;1.30;;;24.30;62.80;;;;;;3539460;40;20045;-70
2021/08/07 10:33:46;;;;;;;1.67;1.00;;;24.30;62.10;;;;;;3539365;40;20042;-70
2021/08/07 10:36:13;;;;;;;1.30;1.20;;;24.30;61.20;;;;;;3539076;40;20034;-69
2021/08/07 10:38:40;;;;;;;1.58;0.95;;;24.30;61.30;;;;;;3537477;40;20046;-69
2021/08/07 10:41:08;;;;;;;2.28;1.05;;;24.30;60.80;;;;;;3538541;40;20046;-69
2021/08/07 10:43:38;;;;;;;1.23;0.70;;;24.30;60.30;;;;;;3549146;40;20422;-70
2021/08/07 10:46:09;;;;;;;2.35;0.90;;;24.30;59.90;;;;;;3540485;40;20385;-69
2021/08/07 10:48:43;;;;;;;1.40;1.30;;;24.30;60.80;;;;;;3546865;40;20768;-70
2021/08/07 10:51:18;;;;;;;2.45;0.80;;;24.30;63.20;;;;;;3536408;40;20042;-70
2021/08/07 10:54:01;;;;;;;3.63;2.40;;;24.40;60.20;;;;;;3542378;40;20034;-70
2021/08/07 10:56:27;;;;;;;4.40;2.97;;;24.60;59.40;;;;;;3541707;40;20048;-69
2021/08/07 10:58:53;;;;;;;8.55;1.00;;;24.60;59.40;;;;;;3542314;40;20043;-70
2021/08/07 11:01:27;;;;;;;2.70;0.75;;;24.70;57.80;;;;;;3541930;40;20030;-69
2021/08/07 11:04:02;;;;;;;2.05;1.50;;;24.70;58.50;;;;;;3541748;40;20034;-70
2021/08/07 11:06:43;;;;;;;1.88;1.30;;;24.60;58.90;;;;;;3542167;40;20049;-69
2021/08/07 11:09:30;;;;;;;1.77;1.02;;;24.60;59.40;;;;;;3541878;40;20161;-69
2021/08/07 11:12:12;;;;;;;0.88;0.82;;;24.60;58.60;;;;;;3540655;40;20046;-69
2021/08/07 11:14:42;;;;;;;2.30;0.90;;;24.60;58.80;;;;;;3541211;40;20046;-69
2021/08/07 11:17:10;;;;;;;1.55;0.70;;;24.70;57.90;;;;;;3542321;40;20050;-70
2021/08/07 11:19:59;;;;;;;0.70;0.70;;;24.80;56.20;;;;;;3541536;40;20075;-69
2021/08/07 11:22:37;;;;;;;1.08;0.70;;;24.80;56.90;;;;;;3543142;40;20051;-70
2021/08/07 11:25:20;;;;;;;5.60;1.13;;;24.80;54.80;;;;;;3542400;40;20026;-69
2021/08/07 11:27:46;;;;;;;3.00;1.65;;;24.80;56.10;;;;;;3542866;40;20679;-70
2021/08/07 11:30:16;;;;;;;2.33;1.20;;;24.90;57.90;;;;;;3541430;40;20097;-69
2021/08/07 11:32:42;;;;;;;4.38;1.80;;;24.90;54.50;;;;;;3542045;40;20042;-69
2021/08/07 11:35:08;;;;;;;0.95;0.65;;;25.00;58.10;;;;;;3542875;40;20022;-69
2021/08/07 11:37:34;;;;;;;1.42;0.70;;;25.10;54.80;;;;;;3542504;40;20030;-70
2021/08/07 11:40:09;;;;;;;3.28;1.00;;;25.10;55.50;;;;;;3541851;40;20074;-71
2021/08/07 11:42:42;;;;;;;1.42;1.17;;;25.10;55.20;;;;;;3542276;40;20082;-70
2021/08/07 11:45:09;;;;;;;1.83;0.70;;;25.10;54.90;;;;;;3548986;40;20033;-70
2021/08/07 11:47:45;;;;;;;1.15;1.00;;;25.20;54.30;;;;;;3542096;40;20022;-69
2021/08/07 11:50:12;;;;;;;1.10;0.73;;;25.20;55.50;;;;;;3541462;40;20034;-70
2021/08/07 11:52:38;;;;;;;1.60;1.10;;;25.20;54.30;;;;;;3548662;40;20336;-70
2021/08/07 11:55:04;;;;;;;1.67;1.00;;;25.20;54.70;;;;;;3541413;40;20168;-70
2021/08/07 11:57:30;;;;;;;2.67;0.70;;;25.20;53.60;;;;;;3542238;40;20768;-70
2021/08/07 12:00:23;;;;;;;2.17;0.73;;;25.20;53.00;;;;;;3541545;40;20104;-70
2021/08/07 12:03:18;;;;;;;1.35;1.00;;;25.20;53.70;;;;;;3540294;40;20063;-69
2021/08/07 12:05:55;;;;;;;2.45;1.00;;;25.30;55.00;;;;;;3534655;40;20117;-69
2021/08/07 12:08:30;;;;;;;2.22;0.63;;;25.30;54.50;;;;;;3540212;40;20050;-70
2021/08/07 12:10:58;;;;;;;1.33;0.77;;;25.30;53.00;;;;;;3541526;40;20038;-70
2021/08/07 12:13:25;;;;;;;2.53;1.30;;;25.20;55.50;;;;;;3541279;40;20543;-70
2021/08/07 12:16:04;;;;;;;1.80;0.60;;;25.30;57.20;;;;;;3541935;40;20034;-69
2021/08/07 12:18:42;;;;;;;0.60;0.60;;;25.30;54.50;;;;;;3546339;40;20027;-69
2021/08/07 12:21:09;;;;;;;2.50;0.60;;;25.30;55.50;;;;;;3541293;40;20169;-69
2021/08/07 12:23:49;;;;;;;0.88;0.73;;;25.40;54.20;;;;;;3541517;40;20040;-69
2021/08/07 12:26:17;;;;;;;1.08;0.60;;;25.40;55.10;;;;;;3541448;40;20078;-70
2021/08/07 12:28:42;;;;;;;1.25;0.60;;;25.40;55.10;;;;;;3541277;40;20387;-69
2021/08/07 12:31:09;;;;;;;1.92;0.90;;;25.50;55.00;;;;;;3541612;40;20038;-69
2021/08/07 12:33:41;;;;;;;1.58;1.02;;;25.50;54.30;;;;;;3541424;40;20090;-68
2021/08/07 12:36:20;;;;;;;1.13;0.65;;;25.50;53.10;;;;;;3541707;40;20042;-69
2021/08/07 12:38:51;;;;;;;1.73;0.93;;;25.50;52.10;;;;;;3540815;40;20074;-70
2021/08/07 12:41:20;;;;;;;1.38;0.70;;;25.40;55.10;;;;;;3541005;40;20117;-69
2021/08/07 12:43:47;;;;;;;0.70;0.70;;;25.40;54.30;;;;;;3542192;40;20466;-70
2021/08/07 12:46:15;;;;;;;1.58;0.60;;;25.40;55.30;;;;;;3541764;40;20022;-70
2021/08/07 12:48:47;;;;;;;1.98;0.90;;;25.50;55.10;;;;;;3541527;40;20038;-69
2021/08/07 12:51:23;;;;;;;0.60;0.60;;;25.50;54.60;;;;;;3538498;40;20144;-70
2021/08/07 12:53:49;;;;;;;1.17;0.57;;;25.60;54.70;;;;;;3541073;40;20030;-69
2021/08/07 12:56:15;;;;;;;1.98;0.80;;;25.60;55.10;;;;;;3541633;40;20038;-70
2021/08/07 12:59:07;;;;;;;0.85;0.70;;;25.70;54.20;;;;;;3537752;40;20034;-69